Time;durP1;ratioP1;P1;durP2;ratioP2;P2;SDS_P1;SDS_P2;PMS_P1;PMS_P2;Temp;Humidity;BMP_temperature;BMP_pressure;BME280_temperature;BME280_humidity;BME280_pressure;Samples;Min_cycle;Max_cycle;Signal;HPM_P1;HPM_P2
2022/07/01 00:00:22;;;;;;;14.77;5.93;;;;;;;23.63;71.58;98399.66;4364435;32;20170;-72
2022/07/01 00:02:49;;;;;;;17.87;5.72;;;;;;;23.68;71.91;98387.25;4364146;32;20110;-72
2022/07/01 00:05:17;;;;;;;9.65;5.55;;;;;;;23.68;71.86;98386.41;4364026;32;20178;-72
2022/07/01 00:07:44;;;;;;;12.95;5.65;;;;;;;23.74;71.90;98391.66;4364106;32;20147;-72
2022/07/01 00:10:12;;;;;;;9.90;6.57;;;;;;;23.79;71.92;98395.50;4363973;32;20087;-72
2022/07/01 00:12:39;;;;;;;11.88;6.00;;;;;;;23.71;72.34;98399.34;4363813;32;20105;-72
2022/07/01 00:15:07;;;;;;;10.75;5.90;;;;;;;23.68;72.62;98392.59;4364046;32;20166;-72
2022/07/01 00:17:35;;;;;;;9.38;5.72;;;;;;;23.64;73.10;98395.97;4363998;32;20143;-72
2022/07/01 00:20:04;;;;;;;14.20;5.97;;;;;;;23.57;73.64;98390.69;4363821;32;20082;-72
2022/07/01 00:22:31;;;;;;;11.32;5.72;;;;;;;23.55;73.86;98393.59;4363834;32;20125;-72
2022/07/01 00:24:59;;;;;;;12.55;5.82;;;;;;;23.55;73.86;98393.59;4363737;32;20126;-72
2022/07/01 00:27:26;;;;;;;12.48;5.57;;;;;;;23.51;74.19;98392.47;4363818;32;20158;-72
2022/07/01 00:29:53;;;;;;;10.15;5.70;;;;;;;23.46;74.28;98392.31;4363886;32;20873;-72
2022/07/01 00:32:21;;;;;;;8.68;6.00;;;;;;;23.38;74.62;98393.47;4363779;32;20503;-72
2022/07/01 00:34:48;;;;;;;9.32;5.72;;;;;;;23.42;74.40;98388.47;4363702;32;20162;-72
2022/07/01 00:37:15;;;;;;;15.25;7.35;;;;;;;23.37;74.93;98391.03;4363839;32;20115;-72
2022/07/01 00:39:42;;;;;;;11.07;6.95;;;;;;;23.34;75.52;98391.50;4363917;32;20091;-72
2022/07/01 00:42:10;;;;;;;15.20;7.45;;;;;;;23.31;76.34;98391.94;4368514;32;20549;-72
2022/07/01 00:44:37;;;;;;;13.90;7.93;;;;;;;23.23;77.15;98394.97;4368560;32;20105;-72
2022/07/01 00:47:12;;;;;;;16.77;8.15;;;;;;;23.16;78.34;98395.84;4368577;32;20095;-72
2022/07/01 00:49:39;;;;;;;13.30;7.12;;;;;;;23.08;79.62;98392.69;4355166;32;20471;-72
2022/07/01 00:52:08;;;;;;;12.00;6.90;;;;;;;23.08;79.31;98393.47;4368582;32;20128;-72
2022/07/01 00:54:37;;;;;;;13.07;7.57;;;;;;;23.08;79.64;98396.16;4368456;32;20645;-72
2022/07/01 00:57:07;;;;;;;11.63;7.07;;;;;;;22.97;81.17;98384.38;4368742;32;20490;-72
2022/07/01 00:59:36;;;;;;;11.70;8.02;;;;;;;22.94;81.84;98387.50;4362786;32;182138;-72
2022/07/01 01:02:06;;;;;;;14.55;7.80;;;;;;;22.89;82.41;98384.69;4368349;32;20161;-72
2022/07/01 01:04:33;;;;;;;15.25;7.20;;;;;;;22.86;82.91;98391.31;4368251;32;20154;-72
2022/07/01 01:07:02;;;;;;;14.35;7.78;;;;;;;22.89;82.84;98391.91;4368278;32;20112;-72
2022/07/01 01:09:33;;;;;;;11.77;6.90;;;;;;;22.87;83.16;98392.94;4368161;32;20514;-72
2022/07/01 01:12:01;;;;;;;9.68;6.62;;;;;;;22.87;83.60;98384.91;4368414;32;20084;-72
2022/07/01 01:14:28;;;;;;;12.68;7.15;;;;;;;22.91;83.55;98385.28;4368269;32;20114;-72
2022/07/01 01:16:56;;;;;;;9.82;6.60;;;;;;;23.10;82.84;98390.59;4368212;32;20099;-72
2022/07/01 01:19:23;;;;;;;35.25;8.30;;;;;;;23.20;82.59;98386.34;4368105;32;20254;-72
2022/07/01 01:21:50;;;;;;;11.50;7.32;;;;;;;23.25;82.26;98376.81;4368065;32;20091;-72
2022/07/01 01:24:18;;;;;;;10.20;7.20;;;;;;;23.20;82.57;98381.00;4368124;32;20159;-72
2022/07/01 01:26:45;;;;;;;12.95;6.93;;;;;;;23.11;82.77;98378.88;4367914;32;20091;-72
2022/07/01 01:29:12;;;;;;;10.52;7.22;;;;;;;23.06;83.82;98392.06;4368145;32;20087;-72
2022/07/01 01:31:40;;;;;;;12.63;7.28;;;;;;;23.08;83.86;98388.13;4367964;32;20079;-72
2022/07/01 01:34:07;;;;;;;11.25;6.65;;;;;;;22.91;84.47;98387.97;4367846;32;20161;-72
2022/07/01 01:36:35;;;;;;;9.68;7.20;;;;;;;22.76;86.03;98392.91;4367814;32;20114;-72
2022/07/01 01:39:20;;;;;;;10.82;6.75;;;;;;;22.75;85.85;98392.06;4367871;32;20087;-71
2022/07/01 01:41:47;;;;;;;9.30;6.72;;;;;;;22.70;85.24;98393.81;4367709;32;20071;-72
2022/07/01 01:44:15;;;;;;;12.55;7.10;;;;;;;22.60;85.48;98392.47;4367770;32;20118;-72
2022/07/01 01:46:42;;;;;;;10.65;6.62;;;;;;;22.56;86.05;98393.13;4367807;32;20099;-72
2022/07/01 01:49:10;;;;;;;9.60;6.40;;;;;;;22.51;86.27;98388.47;4367738;32;20136;-72
2022/07/01 01:51:37;;;;;;;11.60;6.70;;;;;;;22.59;85.83;98392.69;4352967;32;20106;-72
2022/07/01 01:54:05;;;;;;;14.98;6.95;;;;;;;22.64;84.96;98385.63;4351486;32;20174;-72
2022/07/01 01:56:32;;;;;;;12.70;6.90;;;;;;;22.65;83.74;98389.12;4364896;32;20177;-72
2022/07/01 01:58:59;;;;;;;10.25;5.82;;;;;;;22.67;82.45;98384.38;4365038;32;20109;-72
2022/07/01 02:01:27;;;;;;;16.58;6.82;;;;;;;22.65;81.73;98386.44;4364985;32;20445;-72
2022/07/01 02:03:54;;;;;;;10.10;6.68;;;;;;;22.58;81.18;98378.53;4365002;32;20121;-72
2022/07/01 02:06:22;;;;;;;13.60;6.50;;;;;;;22.64;80.90;98379.50;4364982;32;20445;-72
2022/07/01 02:08:49;;;;;;;9.40;6.10;;;;;;;22.59;80.51;98382.00;4365007;32;20083;-72
2022/07/01 02:11:16;;;;;;;9.27;6.18;;;;;;;22.46;80.97;98381.12;4364886;32;20091;-72
2022/07/01 02:13:46;;;;;;;12.18;6.57;;;;;;;22.43;81.82;98378.91;4364844;32;20091;-72
2022/07/01 02:16:13;;;;;;;9.15;5.90;;;;;;;22.39;82.16;98377.75;4364828;32;20095;-72
2022/07/01 02:18:41;;;;;;;11.30;6.97;;;;;;;22.35;82.23;98379.22;4364816;32;20109;-72
2022/07/01 02:21:08;;;;;;;11.10;6.15;;;;;;;22.37;82.94;98374.47;4364961;32;20108;-72
2022/07/01 02:23:37;;;;;;;9.77;6.00;;;;;;;22.33;82.54;98378.63;4364799;32;20542;-72
2022/07/01 02:26:05;;;;;;;12.27;6.05;;;;;;;22.37;82.64;98382.47;4364697;32;20102;-72
2022/07/01 02:28:33;;;;;;;9.27;5.93;;;;;;;22.36;83.07;98386.19;4351323;32;20156;-72
2022/07/01 02:31:02;;;;;;;8.02;5.85;;;;;;;22.32;84.13;98382.34;4351465;32;20102;-72
2022/07/01 02:33:30;;;;;;;10.50;6.15;;;;;;;22.29;83.80;98382.75;4364738;32;20107;-72
2022/07/01 02:35:58;;;;;;;10.93;7.20;;;;;;;22.27;83.96;98390.16;4364782;32;20504;-72
2022/07/01 02:38:25;;;;;;;10.10;6.45;;;;;;;22.28;84.14;98391.78;4364774;32;20130;-72
2022/07/01 02:40:52;;;;;;;12.73;6.00;;;;;;;22.25;84.13;98397.56;4364583;32;20083;-72
2022/07/01 02:43:19;;;;;;;11.52;6.50;;;;;;;22.25;84.17;98402.91;4364657;32;20095;-72
2022/07/01 02:45:47;;;;;;;14.27;6.80;;;;;;;22.22;84.39;98396.16;4364710;32;20118;-72
2022/07/01 02:48:14;;;;;;;10.25;6.82;;;;;;;22.19;84.67;98395.78;4351400;32;20130;-72
2022/07/01 02:50:41;;;;;;;11.25;6.50;;;;;;;22.21;85.04;98399.03;4364572;32;20446;-72
2022/07/01 02:53:08;;;;;;;13.85;7.18;;;;;;;22.21;85.05;98399.87;4364441;32;20099;-72
2022/07/01 02:55:36;;;;;;;9.77;6.72;;;;;;;22.22;84.78;98406.03;4364893;32;20111;-72
2022/07/01 02:58:04;;;;;;;9.30;6.47;;;;;;;22.21;85.00;98405.22;4364562;32;20109;-72
2022/07/01 03:00:31;;;;;;;10.43;6.50;;;;;;;22.20;85.12;98414.25;4364595;32;20091;-72
2022/07/01 03:02:58;;;;;;;11.63;6.60;;;;;;;22.23;85.44;98419.12;4364134;32;20103;-72
2022/07/01 03:05:25;;;;;;;11.70;6.82;;;;;;;22.24;85.13;98418.13;4364396;32;20102;-72
2022/07/01 03:07:53;;;;;;;9.40;6.45;;;;;;;22.25;85.13;98410.91;4364476;32;20090;-72
2022/07/01 03:10:20;;;;;;;11.80;6.95;;;;;;;22.29;85.36;98412.09;4364549;32;20092;-72
2022/07/01 03:12:47;;;;;;;13.93;7.45;;;;;;;22.36;85.47;98418.19;4364300;32;20095;-72
2022/07/01 03:15:15;;;;;;;14.20;8.00;;;;;;;22.45;85.57;98414.22;4364493;32;20115;-72
2022/07/01 03:17:45;;;;;;;20.12;8.27;;;;;;;22.57;85.83;98418.81;4364416;32;20090;-72
2022/07/01 03:20:14;;;;;;;11.68;7.65;;;;;;;22.66;85.61;98417.47;4364470;32;20201;-72
2022/07/01 03:22:43;;;;;;;15.20;8.07;;;;;;;22.80;85.06;98424.28;4364451;32;20512;-72
2022/07/01 03:25:11;;;;;;;16.85;7.72;;;;;;;22.99;84.05;98427.72;4364386;32;20100;-72
2022/07/01 03:27:44;;;;;;;10.90;7.70;;;;;;;23.19;83.18;98434.66;4364592;32;20497;-72
2022/07/01 03:30:14;;;;;;;9.93;7.22;;;;;;;23.37;82.34;98441.81;4364267;32;20470;-72
2022/07/01 03:32:41;;;;;;;11.25;7.80;;;;;;;23.55;81.56;98435.59;4364475;32;20091;-72
2022/07/01 03:37:55;;;;;;;14.93;7.28;;;;;;;23.97;80.12;98453.44;4364280;32;20079;-72
2022/07/01 03:40:23;;;;;;;13.70;7.05;;;;;;;24.17;79.16;98445.87;4364340;32;20088;-72
2022/07/01 03:42:50;;;;;;;18.35;7.68;;;;;;;24.30;78.80;98447.53;4364240;32;20408;-72
2022/07/01 03:45:17;;;;;;;10.18;6.80;;;;;;;24.51;78.11;98453.31;4364345;32;20103;-72
2022/07/01 03:47:46;;;;;;;16.87;7.60;;;;;;;24.64;77.65;98458.44;4364318;32;20418;-72
2022/07/01 03:50:13;;;;;;;10.68;7.05;;;;;;;24.74;77.07;98455.13;4364547;32;20157;-72
2022/07/01 03:52:42;;;;;;;12.52;7.05;;;;;;;24.90;76.60;98465.12;4364241;32;20212;-72
2022/07/01 03:55:09;;;;;;;10.85;6.93;;;;;;;25.00;76.11;98472.56;4364278;32;20496;-72
2022/07/01 03:57:37;;;;;;;11.35;6.78;;;;;;;25.21;75.64;98467.56;4364234;32;20389;-72
2022/07/01 04:00:06;;;;;;;12.32;6.72;;;;;;;25.32;75.07;98480.94;4364010;32;20105;-72
2022/07/01 04:02:34;;;;;;;11.35;6.95;;;;;;;25.46;74.68;98481.47;4364274;32;20098;-72
2022/07/01 04:05:01;;;;;;;11.65;6.97;;;;;;;25.57;nan;98479.78;4364166;32;20087;-72
2022/07/01 04:07:28;;;;;;;12.73;6.93;;;;;;;25.66;74.12;98485.56;4364390;32;20101;-72
2022/07/01 04:09:55;;;;;;;10.93;6.93;;;;;;;25.74;73.78;98479.81;4364035;32;20091;-72
2022/07/01 04:12:22;;;;;;;12.43;6.85;;;;;;;25.77;73.33;98473.12;4363801;32;20107;-71
2022/07/01 04:14:49;;;;;;;11.70;7.78;;;;;;;25.88;72.91;98472.25;4363234;32;20153;-72
2022/07/01 04:17:17;;;;;;;15.05;6.87;;;;;;;25.99;71.38;98474.03;4350648;32;20111;-72
2022/07/01 04:19:44;;;;;;;10.45;7.10;;;;;;;26.06;71.34;98467.69;4363911;32;20096;-72
2022/07/01 04:24:58;;;;;;;12.77;7.05;;;;;;;26.29;70.12;98469.37;4363951;32;20453;-72
2022/07/01 04:27:25;;;;;;;12.37;7.82;;;;;;;26.44;70.04;98463.41;4363810;32;20152;-72
2022/07/01 04:29:52;;;;;;;11.75;6.82;;;;;;;26.59;69.30;98469.00;4364002;32;20114;-72
2022/07/01 04:32:19;;;;;;;12.43;7.25;;;;;;;26.78;68.95;98471.38;4363833;32;20099;-72
2022/07/01 04:34:47;;;;;;;12.30;7.00;;;;;;;26.93;67.45;98468.87;4363854;32;20086;-72
2022/07/01 04:37:14;;;;;;;18.45;6.60;;;;;;;27.14;67.32;98474.50;4363789;32;20095;-72
2022/07/01 04:39:41;;;;;;;13.45;6.65;;;;;;;27.27;65.49;98466.03;4363679;32;20503;-73
2022/07/01 04:42:08;;;;;;;11.95;7.03;;;;;;;27.35;63.59;98468.28;4363711;32;20171;-73
2022/07/01 04:44:37;;;;;;;13.10;7.07;;;;;;;27.53;62.83;98463.59;4363972;32;20099;-73
2022/07/01 04:47:10;;;;;;;12.15;7.50;;;;;;;27.71;62.45;98460.53;4363611;32;20070;-72
2022/07/01 04:49:37;;;;;;;14.87;7.82;;;;;;;27.89;62.53;98447.72;4363539;32;20154;-72
2022/07/01 04:52:04;;;;;;;14.57;7.18;;;;;;;28.01;61.75;98450.25;4363842;32;20095;-72
2022/07/01 04:54:32;;;;;;;14.52;6.85;;;;;;;28.16;61.87;98458.44;4363482;32;20098;-72
2022/07/01 04:56:59;;;;;;;14.02;6.72;;;;;;;28.32;61.60;98453.97;4363512;32;20090;-72
2022/07/01 04:59:26;;;;;;;15.98;6.55;;;;;;;28.46;60.77;98449.75;4363488;32;20103;-72
2022/07/01 05:01:54;;;;;;;20.35;6.93;;;;;;;28.71;60.47;98455.50;4363307;32;20122;-72
2022/07/01 05:04:21;;;;;;;13.68;6.47;;;;;;;28.82;59.62;98459.88;4363439;32;20095;-72
2022/07/01 05:06:48;;;;;;;10.90;6.57;;;;;;;29.02;58.17;98465.34;4363142;32;20091;-72
2022/07/01 05:09:16;;;;;;;12.63;6.68;;;;;;;29.05;56.94;98466.69;4363386;32;20544;-73
2022/07/01 05:11:43;;;;;;;10.48;5.75;;;;;;;29.16;56.28;98457.56;4363289;32;20129;-72
2022/07/01 05:14:10;;;;;;;13.48;6.00;;;;;;;29.38;57.67;98475.44;4349671;32;20099;-72
2022/07/01 05:22:54;;;;;;;15.18;6.45;;;;;;;29.60;56.00;98482.47;4363043;32;20119;-72
2022/07/01 05:25:21;;;;;;;20.62;6.22;;;;;;;29.63;56.93;98481.91;4363025;32;20452;-72
2022/07/01 05:27:48;;;;;;;15.80;5.65;;;;;;;29.69;58.12;98484.37;4364578;32;20098;-72
2022/07/01 05:30:16;;;;;;;16.50;6.50;;;;;;;29.80;57.15;98485.19;4365329;32;20461;-72
2022/07/01 05:32:43;;;;;;;20.98;6.30;;;;;;;29.93;55.68;98488.44;4365121;32;20150;-73
2022/07/01 05:35:10;;;;;;;19.48;7.65;;;;;;;29.87;55.79;98487.62;4365092;32;20165;-72
2022/07/01 05:37:37;;;;;;;10.45;6.35;;;;;;;29.77;57.24;98488.41;4364976;32;20117;-72
2022/07/01 05:40:05;;;;;;;15.90;7.25;;;;;;;29.61;56.13;98500.28;4365174;32;20442;-72
2022/07/01 05:42:32;;;;;;;19.80;7.28;;;;;;;29.65;56.54;98487.88;4365088;32;20095;-72
2022/07/01 05:45:00;;;;;;;15.88;6.37;;;;;;;29.79;55.50;98501.66;4365019;32;20099;-72
2022/07/01 05:47:27;;;;;;;14.35;7.35;;;;;;;29.79;56.29;98501.66;4365039;32;20079;-72
2022/07/01 05:49:54;;;;;;;13.35;7.07;;;;;;;29.68;58.66;98496.25;4365139;32;20087;-72
2022/07/01 05:52:22;;;;;;;17.33;7.70;;;;;;;29.46;57.43;98501.88;4365129;32;20151;-72
2022/07/01 05:54:49;;;;;;;16.60;7.50;;;;;;;29.43;58.52;98502.41;4364978;32;20437;-72
2022/07/01 05:57:16;;;;;;;14.00;7.95;;;;;;;29.34;58.44;98510.25;4364977;32;20090;-72
2022/07/01 05:59:43;;;;;;;23.17;9.18;;;;;;;29.36;58.26;98518.06;4364947;32;20095;-72
2022/07/01 06:05:42;;;;;;;19.17;8.13;;;;;;;29.26;58.80;98520.75;4365070;32;20126;-72
2022/07/01 06:08:09;;;;;;;16.35;7.75;;;;;;;29.33;59.02;98526.69;4365087;32;20091;-72
2022/07/01 06:10:37;;;;;;;16.80;8.35;;;;;;;29.33;58.96;98515.91;4364868;32;20083;-72
2022/07/01 06:13:05;;;;;;;11.07;6.75;;;;;;;29.37;59.37;98528.59;4364731;32;20091;-72
2022/07/01 06:15:33;;;;;;;18.75;7.37;;;;;;;29.29;58.78;98526.41;4364806;32;20112;-72
2022/07/01 06:18:00;;;;;;;14.07;7.53;;;;;;;29.48;58.04;98526.72;4364733;32;20397;-72
2022/07/01 06:20:28;;;;;;;14.20;8.23;;;;;;;29.52;58.92;98522.41;4364848;32;20087;-72
2022/07/01 06:22:57;;;;;;;15.73;8.25;;;;;;;29.36;58.72;98534.25;4364782;32;20118;-72
2022/07/01 06:25:24;;;;;;;16.10;8.95;;;;;;;28.95;59.93;98540.28;4365145;32;20099;-72
2022/07/01 06:27:51;;;;;;;18.40;9.35;;;;;;;29.18;59.64;98539.03;4364793;32;20157;-72
2022/07/01 06:30:18;;;;;;;24.45;10.15;;;;;;;29.18;61.34;98538.22;4364788;32;20087;-72
2022/07/01 06:32:45;;;;;;;20.88;7.65;;;;;;;29.33;60.67;98538.28;4364705;32;20091;-72
2022/07/01 06:35:12;;;;;;;13.95;7.95;;;;;;;29.65;59.59;98539.19;4364702;32;20465;-72
2022/07/01 06:37:40;;;;;;;25.50;8.52;;;;;;;30.02;57.71;98538.13;4364450;32;20468;-72
2022/07/01 06:40:12;;;;;;;14.40;7.70;;;;;;;29.95;57.49;98537.59;4364785;32;20158;-72
2022/07/01 06:42:39;;;;;;;16.58;7.07;;;;;;;30.22;57.97;98537.31;4364649;32;20110;-72
2022/07/01 06:45:07;;;;;;;21.10;8.25;;;;;;;30.41;56.52;98532.19;4364643;32;20118;-72
2022/07/01 06:47:34;;;;;;;18.20;7.95;;;;;;;30.41;56.36;98532.19;4364515;32;20165;-72
2022/07/01 06:50:02;;;;;;;19.92;7.15;;;;;;;30.58;56.65;98535.41;4364729;32;20091;-72
2022/07/01 06:52:31;;;;;;;13.73;6.60;;;;;;;30.31;53.98;98534.88;4364821;32;20095;-73
2022/07/01 06:54:58;;;;;;;20.85;6.32;;;;;;;30.19;54.84;98541.38;4364561;32;20465;-72
2022/07/01 06:57:26;;;;;;;12.93;5.87;;;;;;;30.39;53.39;98542.44;4364574;32;20083;-73
2022/07/01 06:59:53;;;;;;;18.55;5.50;;;;;;;30.57;52.85;98538.37;4364728;32;20449;-73
2022/07/01 07:02:21;;;;;;;16.87;6.00;;;;;;;30.61;52.99;98539.44;4364530;32;20088;-72
2022/07/01 07:04:57;;;;;;;12.90;5.87;;;;;;;30.86;52.52;98538.56;4364935;32;20515;-73
2022/07/01 07:07:28;;;;;;;17.35;5.87;;;;;;;31.14;50.50;98541.69;4364696;32;20166;-72
2022/07/01 07:09:56;;;;;;;13.40;6.12;;;;;;;31.24;50.91;98538.94;4364395;32;20142;-72
2022/07/01 07:12:24;;;;;;;14.27;5.90;;;;;;;31.20;51.05;98540.59;4364234;32;20444;-72
2022/07/01 07:14:51;;;;;;;7.22;5.18;;;;;;;31.22;52.42;98534.88;4364814;32;20421;-73
2022/07/01 07:17:19;;;;;;;14.00;5.10;;;;;;;31.32;48.48;98540.25;4364449;32;20118;-72
2022/07/01 07:19:46;;;;;;;13.40;5.90;;;;;;;31.46;48.76;98535.03;4364368;32;20113;-73
2022/07/01 07:22:13;;;;;;;13.70;5.75;;;;;;;31.72;50.12;98529.47;4364480;32;20162;-72
2022/07/01 07:24:40;;;;;;;9.85;6.32;;;;;;;31.85;48.88;98534.25;4364353;32;20099;-72
2022/07/01 07:27:08;;;;;;;11.85;6.18;;;;;;;31.97;49.64;98525.75;4364318;32;20150;-72
2022/07/01 07:29:36;;;;;;;13.93;5.50;;;;;;;32.12;50.80;98527.56;4364390;32;20099;-72
2022/07/01 07:32:03;;;;;;;13.80;5.28;;;;;;;32.24;47.42;98529.91;4364351;32;20134;-73
2022/07/01 07:34:30;;;;;;;14.77;5.05;;;;;;;32.35;47.28;98528.69;4364652;32;20591;-73
2022/07/01 07:36:58;;;;;;;11.73;4.80;;;;;;;32.48;47.72;98522.59;4364284;32;20090;-73
2022/07/01 07:39:25;;;;;;;12.40;5.12;;;;;;;32.58;46.62;98526.28;4364302;32;20110;-73
2022/07/01 07:41:58;;;;;;;;;;;;;;;32.51;45.46;98529.34;4364769;32;20109;-73
2022/07/01 07:44:26;;;;;;;11.43;4.60;;;;;;;32.62;44.02;98525.41;4351152;32;20007;-73
2022/07/01 07:46:53;;;;;;;11.55;4.25;;;;;;;32.63;44.25;98529.75;4364246;32;20141;-73
2022/07/01 07:49:20;;;;;;;9.52;3.62;;;;;;;32.42;44.03;98529.16;4350273;32;20101;-73
2022/07/01 07:51:48;;;;;;;8.25;4.00;;;;;;;32.42;44.54;98525.66;4363703;32;20122;-72
2022/07/01 07:54:15;;;;;;;12.60;3.90;;;;;;;32.72;45.04;98525.34;4364316;32;20410;-73
2022/07/01 07:56:43;;;;;;;9.57;3.72;;;;;;;32.70;43.00;98530.25;4364211;32;20154;-73
2022/07/01 07:59:16;;;;;;;9.75;4.55;;;;;;;32.78;43.23;98527.97;4364542;32;20187;-73
2022/07/01 08:01:43;;;;;;;7.12;4.10;;;;;;;32.84;42.65;98529.53;4364166;32;20107;-72
2022/07/01 08:04:17;;;;;;;10.90;4.03;;;;;;;32.87;42.89;98534.38;4364102;32;20095;-73
2022/07/01 08:06:45;;;;;;;9.57;4.32;;;;;;;32.96;42.66;98534.56;4364335;32;20087;-73
2022/07/01 08:09:12;;;;;;;6.75;4.00;;;;;;;33.15;43.70;98540.81;4364092;32;20162;-73
2022/07/01 08:11:39;;;;;;;12.27;4.95;;;;;;;33.35;42.05;98547.09;4350786;32;20453;-73
2022/07/01 08:14:07;;;;;;;14.00;4.57;;;;;;;33.40;42.83;98533.44;4363761;32;20117;-73
2022/07/01 08:16:35;;;;;;;9.93;4.05;;;;;;;33.60;42.10;98540.50;4363907;32;20442;-73
2022/07/01 08:19:02;;;;;;;10.75;4.10;;;;;;;33.83;42.30;98540.72;4350620;32;20095;-73
2022/07/01 08:21:30;;;;;;;12.25;4.50;;;;;;;33.67;40.02;98543.63;4364028;32;20767;-73
2022/07/01 08:23:57;;;;;;;12.68;4.57;;;;;;;33.47;41.03;98542.03;4363865;32;20106;-73
2022/07/01 08:26:24;;;;;;;10.35;4.93;;;;;;;33.64;41.99;98546.94;4363869;32;20129;-73
2022/07/01 08:28:52;;;;;;;9.55;4.05;;;;;;;33.90;40.92;98549.28;4363796;32;20114;-73
2022/07/01 08:31:19;;;;;;;11.25;4.03;;;;;;;33.97;40.17;98546.22;4364126;32;20170;-72
2022/07/01 08:33:46;;;;;;;10.43;4.10;;;;;;;33.90;40.59;98547.41;4363812;32;20113;-73
2022/07/01 08:36:13;;;;;;;10.18;3.58;;;;;;;33.87;40.42;98545.28;4363813;32;20087;-72
2022/07/01 08:38:41;;;;;;;6.05;4.00;;;;;;;33.91;40.27;98548.19;4363696;32;20083;-72
2022/07/01 08:41:08;;;;;;;6.97;4.22;;;;;;;34.19;40.18;98542.81;4363750;32;20094;-73
2022/07/01 08:43:35;;;;;;;15.25;4.28;;;;;;;34.33;39.78;98548.34;4363724;32;20433;-73
2022/07/01 08:46:03;;;;;;;10.02;4.12;;;;;;;34.47;41.26;98538.28;4363642;32;20121;-73
2022/07/01 08:48:30;;;;;;;10.15;3.78;;;;;;;34.51;39.68;98543.91;4363583;32;20087;-73
2022/07/01 08:50:58;;;;;;;11.00;3.42;;;;;;;34.62;37.38;98550.78;4363577;32;20098;-72
2022/07/01 08:53:25;;;;;;;7.72;3.85;;;;;;;34.39;37.26;98539.78;4363582;32;20166;-73
2022/07/01 08:58:38;;;;;;;8.77;3.35;;;;;;;34.62;38.14;98542.63;4363583;32;20445;-73
2022/07/01 09:01:25;;;;;;;12.27;4.25;;;;;;;34.80;37.03;98539.03;4363648;32;20382;-73
2022/07/01 09:03:56;;;;;;;5.85;3.45;;;;;;;34.81;36.99;98527.03;4365430;32;20107;-73
2022/07/01 09:06:26;;;;;;;12.20;3.70;;;;;;;34.98;37.95;98539.22;4351994;32;20145;-73
2022/07/01 09:08:54;;;;;;;7.35;3.62;;;;;;;34.91;36.65;98534.16;4365294;32;20138;-73
2022/07/01 09:11:23;;;;;;;7.18;3.50;;;;;;;34.89;36.63;98528.22;4365346;32;20122;-73
2022/07/01 09:14:14;;;;;;;10.07;3.62;;;;;;;34.94;37.78;98530.84;4365060;32;20438;-73
2022/07/01 09:16:45;;;;;;;7.03;4.03;;;;;;;35.04;36.01;98521.66;4365342;32;20083;-73
2022/07/01 09:19:14;;;;;;;14.93;3.30;;;;;;;35.15;37.21;98524.97;4365410;32;20138;-73
2022/07/01 09:21:42;;;;;;;11.88;3.45;;;;;;;35.23;33.25;98528.88;4365527;32;20150;-73
2022/07/01 09:24:34;;;;;;;6.82;3.30;;;;;;;34.89;33.80;98520.06;4365229;32;20095;-73
2022/07/01 09:27:12;;;;;;;10.40;3.53;;;;;;;34.97;35.33;98529.44;4365221;32;20080;-73
2022/07/01 09:29:42;;;;;;;12.48;3.83;;;;;;;35.32;35.42;98525.19;4365156;32;20149;-73
2022/07/01 09:32:14;;;;;;;8.68;3.47;;;;;;;35.36;35.47;98525.34;4365075;32;20111;-73
2022/07/01 09:34:47;;;;;;;11.95;3.42;;;;;;;35.31;34.31;98539.09;4351917;32;20103;-73
2022/07/01 09:37:19;;;;;;;5.80;3.10;;;;;;;35.38;35.72;98523.13;4365352;32;20147;-73
2022/07/01 09:39:50;;;;;;;10.13;3.70;;;;;;;35.34;33.80;98522.16;4365304;32;20101;-73
2022/07/01 09:42:20;;;;;;;13.45;3.72;;;;;;;35.07;34.78;98523.78;4365082;32;20091;-73
2022/07/01 09:44:58;;;;;;;10.30;3.45;;;;;;;35.03;34.57;98522.78;4365181;32;20149;-73
2022/07/01 09:47:31;;;;;;;10.38;3.58;;;;;;;35.19;34.90;98521.34;4364931;32;20504;-73
2022/07/01 09:49:59;;;;;;;9.88;4.37;;;;;;;34.90;35.30;98520.88;4365000;32;20095;-73
2022/07/01 09:52:26;;;;;;;6.28;3.42;;;;;;;34.93;36.12;98518.38;4365087;32;20122;-73
2022/07/01 09:55:07;;;;;;;8.45;3.40;;;;;;;35.43;34.58;98523.03;4365038;32;20117;-73
2022/07/01 09:57:34;;;;;;;9.50;3.78;;;;;;;35.67;33.91;98520.00;4351840;32;20087;-73
2022/07/01 10:00:04;;;;;;;9.02;3.60;;;;;;;35.92;31.99;98514.25;4364915;32;20169;-73
2022/07/01 10:02:33;;;;;;;5.85;3.00;;;;;;;36.15;32.59;98517.75;4365043;32;20099;-73
2022/07/01 10:05:06;;;;;;;8.10;3.45;;;;;;;36.00;30.48;98524.41;4364894;32;20599;-73
2022/07/01 10:07:45;;;;;;;7.32;3.15;;;;;;;36.22;30.60;98516.19;4364953;32;20079;-73
2022/07/01 10:10:13;;;;;;;14.07;3.87;;;;;;;36.33;30.75;98511.28;4351538;32;20452;-73
2022/07/01 10:12:46;;;;;;;8.68;3.25;;;;;;;36.62;31.70;98509.16;4364182;32;20111;-73
2022/07/01 10:15:16;;;;;;;8.70;3.20;;;;;;;36.89;30.97;98519.06;4364824;32;20382;-73
2022/07/01 10:17:45;;;;;;;12.00;3.65;;;;;;;37.07;30.90;98501.56;4364896;32;20087;-73
2022/07/01 10:20:15;;;;;;;7.10;3.10;;;;;;;37.18;30.17;98499.34;4364787;32;20106;-73
2022/07/01 10:22:49;;;;;;;11.45;3.85;;;;;;;36.32;29.52;98511.59;4364993;32;20087;-73
2022/07/01 10:25:32;;;;;;;9.85;3.10;;;;;;;36.08;30.02;98507.28;4364829;32;20103;-73
2022/07/01 10:28:28;;;;;;;14.65;3.47;;;;;;;36.14;29.91;98508.78;4365049;32;20079;-73
2022/07/01 10:31:08;;;;;;;10.88;3.75;;;;;;;36.54;31.23;98508.00;4364698;32;20386;-73
2022/07/01 10:33:42;;;;;;;12.70;3.60;;;;;;;36.16;29.91;98508.47;4364705;32;20449;-73
2022/07/01 10:36:17;;;;;;;12.48;3.70;;;;;;;35.83;31.02;98506.81;4351355;32;20158;-73
2022/07/01 10:39:00;;;;;;;9.60;3.33;;;;;;;35.87;31.91;98504.28;4364615;32;20075;-73
2022/07/01 10:41:48;;;;;;;10.27;3.37;;;;;;;35.80;30.72;98501.19;4364771;32;20138;-73
2022/07/01 10:44:15;;;;;;;8.38;3.85;;;;;;;35.47;31.03;98507.66;4303498;33;20152;-73
2022/07/01 10:46:58;;;;;;;12.23;3.37;;;;;;;35.46;32.50;98500.63;4303646;33;20195;-73
2022/07/01 10:49:34;;;;;;;9.50;4.00;;;;;;;35.56;32.79;98505.00;4303596;33;20151;-73
2022/07/01 10:52:15;;;;;;;11.52;4.53;;;;;;;35.27;32.38;98506.22;4303887;33;20164;-73
2022/07/01 10:54:48;;;;;;;11.63;3.65;;;;;;;35.18;33.00;98508.03;4303808;33;20159;-73
2022/07/01 10:57:15;;;;;;;7.80;3.50;;;;;;;35.53;32.43;98503.69;4303710;33;20104;-73
2022/07/01 10:59:44;;;;;;;10.50;3.22;;;;;;;35.85;31.60;98507.34;4303731;33;20111;-73
2022/07/01 11:02:14;;;;;;;9.60;3.53;;;;;;;36.10;32.56;98498.81;4303447;33;20589;-73
2022/07/01 11:04:50;;;;;;;7.47;3.55;;;;;;;36.55;32.77;98504.16;4303718;33;20139;-73
2022/07/01 11:07:17;;;;;;;10.93;3.67;;;;;;;37.03;31.65;98488.88;4303500;33;20100;-73
2022/07/01 11:09:45;;;;;;;9.82;3.67;;;;;;;37.42;29.77;98489.91;4303723;33;20100;-73
2022/07/01 11:12:15;;;;;;;9.55;3.75;;;;;;;37.17;29.35;98503.22;4303734;33;20737;-73
2022/07/01 11:14:43;;;;;;;12.20;3.62;;;;;;;37.23;30.94;98482.84;4303633;33;20173;-73
2022/07/01 11:17:12;;;;;;;7.37;3.35;;;;;;;37.15;28.94;98491.78;4303961;33;20109;-73
2022/07/01 11:19:39;;;;;;;7.47;3.42;;;;;;;36.99;28.46;98486.00;4303661;33;20163;-73
2022/07/01 11:22:06;;;;;;;13.35;3.78;;;;;;;37.06;27.87;98483.56;4350475;32;20426;-73
2022/07/01 11:24:33;;;;;;;11.50;3.55;;;;;;;36.90;28.01;98485.19;4364122;32;20698;-73
2022/07/01 11:27:07;;;;;;;6.85;3.28;;;;;;;36.90;29.23;98482.44;4364147;32;20762;-73
2022/07/01 11:29:34;;;;;;;10.55;3.40;;;;;;;36.67;29.52;98481.72;4364134;32;20098;-73
2022/07/01 11:32:03;;;;;;;8.77;3.80;;;;;;;37.00;29.67;98476.66;4364409;32;20075;-73
2022/07/01 11:34:30;;;;;;;8.05;3.62;;;;;;;37.38;28.67;98469.78;4364255;32;20522;-73
2022/07/01 11:39:47;;;;;;;7.00;3.03;;;;;;;38.04;29.10;98455.88;4364282;32;20130;-73
2022/07/01 11:42:14;;;;;;;5.82;3.47;;;;;;;37.92;27.50;98453.81;4364317;32;20095;-73
2022/07/01 11:44:43;;;;;;;8.10;3.87;;;;;;;37.58;28.15;98452.75;4364288;32;20098;-73
2022/07/01 11:47:23;;;;;;;7.53;3.45;;;;;;;37.83;28.49;98458.50;4364389;32;20106;-73
2022/07/01 11:49:51;;;;;;;10.27;3.53;;;;;;;38.05;27.06;98445.72;4350973;32;20098;-73
2022/07/01 11:52:20;;;;;;;7.30;3.75;;;;;;;38.10;27.86;98451.81;4364301;32;20084;-73
2022/07/01 11:54:59;;;;;;;6.20;3.28;;;;;;;37.91;26.77;98444.00;4364244;32;20556;-73